Forty Two — WDD4780 — position and weather

sailwx.info

Track history (hours):
 
Tides and Currents Weather Stations Pressure Air Temp Water Temp Dewpoint Dewpoint Depression Visibility Wind Speed Wind Dir Waves Ship Positions

Forty Two

Owner: allen, christopher h, port angeles, WA. More information available from US FCC via Universal Licensing System and Coast Guard Vessel Documentation Center.

Last reported at 2016-Jul-22 16:33 UTC. Time now 2016-Jul-24 10:45 UTC.
Position N 29°34' W 092°18'.

Length 38 m.

Type: Passenger vessel. MMSI: 367455780.

Date/timePositionNaut miles runAvg speedWind from/ knotsBaromVisibWave heightAir tempDewpointWater temp
2016-Jul-22 16:33N 29°34' W 092°18'1010.4
2016-Jul-22 15:33N 29°44' W 092°14'5 5.3
2016-Jul-22 14:33N 29°47' W 092°09'1 0.7
2016-Jul-22 13:33N 29°47' W 092°09'2 2.2
2016-Jul-22 12:33N 29°49' W 092°08'0 0.0
2016-Jul-22 11:33N 29°49' W 092°08'0 0.1
2016-Jul-22 10:33N 29°49' W 092°08'0 0.0
2016-Jul-22 09:33N 29°49' W 092°08'0 0.0
2016-Jul-22 08:33N 29°49' W 092°08'0 0.0
2016-Jul-22 07:33N 29°49' W 092°08'4 1.2
2016-Jul-22 04:33N 29°46' W 092°10'1110.8
2016-Jul-22 03:34N 29°37' W 092°17'  
2016-Jul-14 04:34N 29°36' W 092°17'9 8.9
2016-Jul-14 03:34N 29°44' W 092°14'7 7.0
2016-Jul-14 02:33N 29°49' W 092°08'0 0.2
2016-Jul-14 01:33N 29°49' W 092°08'3 2.9
2016-Jul-14 00:33N 29°47' W 092°10'1010.4
2016-Jul-13 23:33N 29°38' W 092°16'  
Track history (hours):
 
Tides and Currents Weather Stations Pressure Air Temp Water Temp Dewpoint Dewpoint Depression Visibility Wind Speed Wind Dir Waves Ship Positions

Forty Two

Owner: allen, christopher h, port angeles, WA. More information available from US FCC via Universal Licensing System and Coast Guard Vessel Documentation Center.

Last reported at 2016-Jul-22 16:33 UTC. Time now 2016-Jul-24 10:45 UTC.
Position N 29°34' W 092°18'.

Length 38 m.

Type: Passenger vessel. MMSI: 367455780.

Date/timePositionNaut miles runAvg speedWind from/ knotsBaromVisibWave heightAir tempDewpointWater temp
2016-Jul-22 16:33N 29°34' W 092°18'1010.4
2016-Jul-22 15:33N 29°44' W 092°14'5 5.3
2016-Jul-22 14:33N 29°47' W 092°09'1 0.7
2016-Jul-22 13:33N 29°47' W 092°09'2 2.2
2016-Jul-22 12:33N 29°49' W 092°08'0 0.0
2016-Jul-22 11:33N 29°49' W 092°08'0 0.1
2016-Jul-22 10:33N 29°49' W 092°08'0 0.0
2016-Jul-22 09:33N 29°49' W 092°08'0 0.0
2016-Jul-22 08:33N 29°49' W 092°08'0 0.0
2016-Jul-22 07:33N 29°49' W 092°08'4 1.2
2016-Jul-22 04:33N 29°46' W 092°10'1110.8
2016-Jul-22 03:34N 29°37' W 092°17'  
2016-Jul-14 04:34N 29°36' W 092°17'9 8.9
2016-Jul-14 03:34N 29°44' W 092°14'7 7.0
2016-Jul-14 02:33N 29°49' W 092°08'0 0.2
2016-Jul-14 01:33N 29°49' W 092°08'3 2.9
2016-Jul-14 00:33N 29°47' W 092°10'1010.4
2016-Jul-13 23:33N 29°38' W 092°16'  

Dump ship's entire track history